»·PEaware :: WAT574 KSBA-KFAT

WAT574 :: KSBA-KFAT

FLIGHT INFORMATION

Flight Status: Arrived
Operator:
Walker Air Transport
More flights by this operator :: More flights under this callsign
Pilot: John R. (31973)
Aircraft: CESSNA 208 CARAVAN
(C208)
More flights by this aircraft type
Origin: KSBA Santa Barbara Mun
United States
Destination: KFAT Fresno Yosemite Intl
United States
More flights between these airports :: More routes between these airports
Route:
File this flight plan on PilotEdge
Remarks:
Altitude:
(Current/Filed)
7,500ft
Speed:
(Current/Filed)
160kts
Departed: 02-May-21 08:15 PM
Arrived: 02-May-21 09:19 PM
Distance/Time
Traveled:
141nm/1:03
Distance/Time
To Go:
Arrived

Flight Plot

Page will automatically refresh every two minutes.

Flight plan parsing failed; only flown route is shown


Map Options




Map Legend


Flown Route
Filed Route
Departure Airport
Arrival Airport
Navaid (VOR, NDB)
Fix

Horizontal Profiles

Position Reports

Time Latitude Longitude Heading Altitude Ground
Speed
02-May-21 19:57 34.423385 -119.835680 70 15ft 0kts
02-May-21 19:58 34.423385 -119.835680 70 15ft 0kts
02-May-21 19:59 34.423385 -119.835680 70 15ft 0kts
02-May-21 20:00 34.423385 -119.835680 70 15ft 0kts
02-May-21 20:01 34.423385 -119.835680 70 15ft 0kts
02-May-21 20:02 34.423385 -119.835680 70 15ft 0kts
02-May-21 20:03 34.423385 -119.835680 70 15ft 0kts
02-May-21 20:04 34.423385 -119.835680 70 15ft 0kts
02-May-21 20:05 34.423385 -119.835680 70 15ft 0kts
02-May-21 20:06 34.423385 -119.835680 70 15ft 0kts
02-May-21 20:07 34.423385 -119.835680 70 15ft 0kts
02-May-21 20:08 34.423385 -119.835679 70 15ft 0kts
02-May-21 20:09 34.424034 -119.836611 345 15ft 0kts
02-May-21 20:10 34.425482 -119.837224 344 15ft 14kts
02-May-21 20:11 34.426905 -119.835330 64 15ft 8kts
02-May-21 20:12 34.427355 -119.835150 356 15ft 0kts
02-May-21 20:13 34.427877 -119.835481 276 15ft 15kts
02-May-21 20:14 34.427144 -119.862608 269 573ft 133kts
02-May-21 20:15 34.426618 -119.910417 269 1430ft 153kts
02-May-21 20:16 34.426042 -119.963952 269 1836ft 151kts
02-May-21 20:17 34.443561 -119.987783 42 2792ft 128kts
02-May-21 20:18 34.466242 -119.954284 52 3803ft 129kts
02-May-21 20:19 34.485987 -119.917729 59 4803ft 130kts
02-May-21 20:20 34.504761 -119.879476 59 5809ft 134kts
02-May-21 20:21 34.517522 -119.836549 73 6814ft 135kts
02-May-21 20:22 34.528690 -119.791567 73 7487ft 149kts
02-May-21 20:23 34.542031 -119.737846 73 7506ft 175kts
02-May-21 20:24 34.580670 -119.709822 11 7505ft 179kts
02-May-21 20:25 34.627228 -119.688690 26 7504ft 179kts
02-May-21 20:26 34.671265 -119.660277 28 7504ft 179kts
02-May-21 20:27 34.714708 -119.630768 29 7504ft 179kts
02-May-21 20:28 34.758287 -119.600916 29 7504ft 179kts
02-May-21 20:29 34.801716 -119.571100 29 7503ft 179kts
02-May-21 20:30 34.845107 -119.541270 29 7504ft 179kts
02-May-21 20:31 34.888429 -119.511449 29 7504ft 179kts
02-May-21 20:32 34.931831 -119.481537 29 7504ft 179kts
02-May-21 20:33 34.975142 -119.451651 29 7504ft 179kts
02-May-21 20:34 35.018668 -119.421579 29 7504ft 179kts
02-May-21 20:35 35.062110 -119.391527 29 7503ft 179kts
02-May-21 20:36 35.105488 -119.361481 29 7504ft 179kts
02-May-21 20:37 35.148842 -119.331409 29 7504ft 179kts
02-May-21 20:38 35.192062 -119.301410 29 7504ft 179kts
02-May-21 20:39 35.235484 -119.271221 29 7504ft 179kts
02-May-21 20:40 35.278911 -119.240988 29 7504ft 179kts
02-May-21 20:41 35.322208 -119.210807 29 7504ft 179kts
02-May-21 20:42 35.365492 -119.180597 29 7504ft 179kts
02-May-21 20:43 35.408883 -119.150274 29 7504ft 179kts
02-May-21 20:44 35.452288 -119.119899 29 7504ft 179kts
02-May-21 20:45 35.498049 -119.096164 11 7302ft 181kts
02-May-21 20:46 35.547400 -119.086264 8 6699ft 177kts
02-May-21 20:47 35.595093 -119.077658 8 6507ft 172kts
02-May-21 20:48 35.643323 -119.069056 8 6504ft 177kts
02-May-21 20:50 35.692077 -119.060362 8 6504ft 177kts
02-May-21 20:51 35.741014 -119.051627 8 6504ft 177kts
02-May-21 20:52 35.789815 -119.042905 8 6504ft 177kts
02-May-21 20:53 35.838603 -119.034174 8 6504ft 177kts
02-May-21 20:54 35.887375 -119.025434 8 6504ft 177kts
02-May-21 20:55 35.935561 -119.032406 340 6504ft 177kts
02-May-21 20:56 35.981888 -119.053583 339 6504ft 177kts
02-May-21 20:57 36.027938 -119.075388 338 6504ft 177kts
02-May-21 20:58 36.073940 -119.097284 338 6504ft 177kts
02-May-21 20:59 36.120005 -119.119247 338 6504ft 177kts
02-May-21 21:00 36.166061 -119.141236 338 6504ft 177kts
02-May-21 21:01 36.211862 -119.163131 338 6504ft 177kts
02-May-21 21:02 36.257885 -119.185161 338 6504ft 177kts
02-May-21 21:03 36.303838 -119.207190 338 6504ft 177kts
02-May-21 21:04 36.350034 -119.229350 338 6458ft 179kts
02-May-21 21:05 36.395313 -119.251098 338 5853ft 172kts
02-May-21 21:06 36.440048 -119.271921 338 5254ft 170kts
02-May-21 21:07 36.484102 -119.293703 338 4655ft 170kts
02-May-21 21:08 36.526708 -119.314393 338 4503ft 159kts
02-May-21 21:09 36.561828 -119.344646 308 4505ft 156kts
02-May-21 21:10 36.587758 -119.388219 305 4504ft 156kts
02-May-21 21:11 36.613173 -119.432206 305 4504ft 156kts
02-May-21 21:11 36.634391 -119.469051 305 4504ft 156kts
02-May-21 21:13 36.663953 -119.520461 305 3953ft 156kts
02-May-21 21:14 36.689174 -119.564220 305 3263ft 154kts
02-May-21 21:15 36.713687 -119.606781 307 2556ft 138kts
02-May-21 21:16 36.732655 -119.641055 301 2027ft 93kts
02-May-21 21:16 36.748056 -119.666741 307 1178ft 115kts
02-May-21 21:17 36.764238 -119.695624 304 540ft 88kts
02-May-21 21:18 36.775083 -119.714642 289 341ft 11kts
02-May-21 21:20 36.774056 -119.714548 155 341ft 0kts
02-May-21 21:21 36.774000 -119.714516 155 341ft 5kts
02-May-21 21:21 36.771810 -119.714987 213 341ft 17kts
02-May-21 21:22 36.773062 -119.719418 301 341ft 28kts
02-May-21 21:23 36.778168 -119.729042 304 342ft 36kts
02-May-21 21:24 36.778753 -119.730231 139 341ft 0kts
02-May-21 21:25 36.778361 -119.730506 226 341ft 0kts

Navigation Log

Ident Type
Flight plan parsing failed, navigation log unavailable